createdAt,value
2023-02-01T00:00:13.802Z,100747.22
2023-02-01T00:03:20.658Z,100748.91
2023-02-01T00:06:26.459Z,100750.94
2023-02-01T00:09:30.563Z,100749.00
2023-02-01T00:12:38.439Z,100729.66
2023-02-01T00:15:42.583Z,100748.63
2023-02-01T00:18:52.667Z,100746.59
2023-02-01T00:21:58.613Z,100731.81
2023-02-01T00:25:04.305Z,100739.19
2023-02-01T00:28:08.590Z,100721.50
2023-02-01T00:31:19.283Z,100740.13
2023-02-01T00:34:49.461Z,100741.25
2023-02-01T00:37:55.649Z,100703.50
2023-02-01T00:41:07.848Z,100726.31
2023-02-01T00:44:15.160Z,100743.66
2023-02-01T00:47:21.650Z,100717.19
2023-02-01T00:50:28.951Z,100718.44
2023-02-01T00:53:36.333Z,100732.56
2023-02-01T00:56:42.443Z,100733.22
2023-02-01T00:59:48.356Z,100741.78
2023-02-01T01:02:54.346Z,100707.00
2023-02-01T01:06:00.200Z,100695.69
2023-02-01T01:09:09.005Z,100765.31
2023-02-01T01:12:15.082Z,100734.19
2023-02-01T01:15:21.358Z,100748.78
2023-02-01T01:18:27.350Z,100753.56
2023-02-01T01:21:34.026Z,100762.69
2023-02-01T01:24:39.978Z,100749.81
2023-02-01T01:27:46.023Z,100700.63
2023-02-01T01:30:52.086Z,100716.13
2023-02-01T01:34:00.705Z,100747.25
2023-02-01T01:37:07.870Z,100742.72
2023-02-01T01:40:14.515Z,100759.19
2023-02-01T01:43:22.796Z,100739.53
2023-02-01T01:46:44.392Z,100750.69
2023-02-01T01:49:51.163Z,100745.94
2023-02-01T01:53:00.810Z,100724.16
2023-02-01T01:56:05.186Z,100737.50
2023-02-01T01:59:13.348Z,100737.97
2023-02-01T02:02:19.551Z,100723.31
2023-02-01T02:05:26.768Z,100723.72
2023-02-01T02:08:32.776Z,100709.69
2023-02-01T02:11:38.556Z,100727.41
2023-02-01T02:14:44.616Z,100709.03
2023-02-01T02:18:29.222Z,100701.28
2023-02-01T02:21:38.531Z,100694.41
2023-02-01T02:24:56.436Z,100695.06
2023-02-01T02:28:55.825Z,100696.06
2023-02-01T02:32:32.051Z,100698.91
2023-02-01T02:36:01.854Z,100697.03
2023-02-01T02:39:10.267Z,100698.72
2023-02-01T02:43:05.093Z,100670.41
2023-02-01T02:46:57.906Z,100680.38
2023-02-01T02:50:29.970Z,100676.16
2023-02-01T02:54:12.914Z,100675.44
2023-02-01T02:57:43.173Z,100646.38
2023-02-01T03:01:09.040Z,100632.41
2023-02-01T03:04:19.302Z,100639.84
2023-02-01T03:08:04.928Z,100676.25
2023-02-01T03:11:14.269Z,100674.38
2023-02-01T03:14:23.897Z,100676.13
2023-02-01T03:17:37.536Z,100657.03
2023-02-01T03:20:46.883Z,100611.63
2023-02-01T03:23:53.271Z,100656.41
2023-02-01T03:27:07.318Z,100638.66
2023-02-01T03:30:27.556Z,100664.63
2023-02-01T03:33:35.485Z,100651.00
2023-02-01T03:36:48.551Z,100650.84
2023-02-01T03:40:09.326Z,100656.97
2023-02-01T03:43:51.438Z,100503.66
2023-02-01T03:47:02.395Z,100663.03
2023-02-01T03:50:16.812Z,100656.16
2023-02-01T03:53:28.742Z,100662.94
2023-02-01T03:56:38.688Z,100663.34
2023-02-01T03:59:49.009Z,100618.94
2023-02-01T04:02:56.095Z,100622.06
2023-02-01T04:06:02.154Z,100646.34
2023-02-01T04:09:08.735Z,100629.66
2023-02-01T04:12:14.888Z,100631.31
2023-02-01T04:15:20.709Z,100643.16
2023-02-01T04:18:26.615Z,100651.22
2023-02-01T04:21:32.583Z,100619.66
2023-02-01T04:24:38.543Z,100644.47
2023-02-01T04:27:42.652Z,100654.09
2023-02-01T04:30:50.558Z,100627.09
2023-02-01T04:33:59.230Z,100648.56
2023-02-01T04:37:05.532Z,100634.72
2023-02-01T04:40:12.084Z,100630.53
2023-02-01T04:43:19.535Z,100626.53
2023-02-01T04:46:25.529Z,100647.59
2023-02-01T04:49:31.236Z,100616.16
2023-02-01T04:52:37.256Z,100643.66
2023-02-01T04:55:43.822Z,100610.00
2023-02-01T04:58:49.755Z,100636.22
2023-02-01T05:01:55.181Z,100645.09
2023-02-01T05:05:01.565Z,100646.69
2023-02-01T05:08:08.623Z,100620.31
2023-02-01T05:11:32.676Z,100636.13
2023-02-01T05:14:38.943Z,100652.09
2023-02-01T05:17:45.844Z,100668.56
2023-02-01T05:20:51.967Z,100641.91
2023-02-01T05:24:21.187Z,100617.47
2023-02-01T05:27:28.390Z,100667.16
2023-02-01T05:30:36.847Z,100670.28
2023-02-01T05:33:42.570Z,100666.47
2023-02-01T05:36:48.973Z,100673.53
2023-02-01T05:39:54.885Z,100667.59
2023-02-01T05:43:00.688Z,100670.63
2023-02-01T05:46:06.262Z,100676.44
2023-02-01T05:49:12.157Z,100673.06
2023-02-01T05:52:21.110Z,100677.94
2023-02-01T05:55:31.088Z,100669.03
2023-02-01T05:58:37.839Z,100675.22
2023-02-01T06:01:44.460Z,100670.50
2023-02-01T06:04:50.245Z,100669.63
2023-02-01T06:07:54.505Z,100648.81
2023-02-01T06:11:06.786Z,100689.69
2023-02-01T06:14:11.004Z,100694.56
2023-02-01T06:17:20.259Z,100677.81
2023-02-01T06:20:25.028Z,100710.41
2023-02-01T06:23:33.288Z,100721.75
2023-02-01T06:26:40.785Z,100678.69
2023-02-01T06:29:46.619Z,100726.88
2023-02-01T06:32:56.207Z,100724.25
2023-02-01T06:36:05.612Z,100737.81
2023-02-01T06:39:09.883Z,100689.78
2023-02-01T06:42:17.664Z,100754.78
2023-02-01T06:45:21.940Z,100734.97
2023-02-01T06:48:29.478Z,100704.97
2023-02-01T06:51:36.408Z,100747.63
2023-02-01T06:54:42.344Z,100743.50
2023-02-01T07:01:26.134Z,100774.91
2023-02-01T07:04:30.375Z,100784.16
2023-02-01T07:07:38.043Z,100792.78
2023-02-01T07:10:43.684Z,100791.91
2023-02-01T07:13:50.467Z,100794.16
2023-02-01T07:16:54.635Z,100780.69
2023-02-01T07:20:05.567Z,100789.41
2023-02-01T07:23:15.035Z,100798.63
2023-02-01T07:26:20.844Z,100799.91
2023-02-01T07:29:26.832Z,100803.94
2023-02-01T07:32:33.378Z,100789.69
2023-02-01T07:35:39.350Z,100770.84
2023-02-01T07:38:45.472Z,100808.34
2023-02-01T07:41:51.005Z,100811.47
2023-02-01T07:44:57.565Z,100812.09
2023-02-01T07:48:03.184Z,100822.66
2023-02-01T07:51:14.621Z,100809.75
2023-02-01T07:54:19.035Z,100803.28
2023-02-01T07:57:26.911Z,100805.16
2023-02-01T08:04:16.554Z,100811.72
2023-02-01T08:07:20.753Z,100843.84
2023-02-01T08:10:29.088Z,100857.00
2023-02-01T08:13:38.667Z,100835.75
2023-02-01T08:16:44.427Z,100843.06
2023-02-01T08:19:49.748Z,100862.97
2023-02-01T08:23:04.756Z,100878.72
2023-02-01T08:26:21.596Z,100872.72
2023-02-01T08:29:27.455Z,100846.75
2023-02-01T08:32:35.582Z,100861.38
2023-02-01T08:35:44.124Z,100870.91
2023-02-01T08:38:51.730Z,100891.47
2023-02-01T08:42:15.639Z,100870.06
2023-02-01T08:45:25.646Z,100896.47
2023-02-01T08:48:31.437Z,100885.19
2023-02-01T08:51:37.289Z,100909.13
2023-02-01T08:54:43.901Z,100879.22
2023-02-01T08:57:50.102Z,100915.50
2023-02-01T09:00:56.453Z,100893.09
2023-02-01T09:04:00.646Z,100924.66
2023-02-01T09:07:07.892Z,100920.59
2023-02-01T09:10:12.640Z,100930.25
2023-02-01T09:13:20.139Z,100933.19
2023-02-01T09:16:26.659Z,100928.72
2023-02-01T09:19:34.782Z,100937.38
2023-02-01T09:22:41.077Z,100946.72
2023-02-01T09:25:47.496Z,100898.03
2023-02-01T09:28:55.127Z,100956.53
2023-02-01T09:32:04.289Z,100948.53
2023-02-01T09:35:11.185Z,100966.81
2023-02-01T09:38:17.475Z,100949.59
2023-02-01T09:41:39.717Z,100949.03
2023-02-01T09:45:19.974Z,100962.28
2023-02-01T09:48:33.941Z,100974.00
2023-02-01T09:51:45.903Z,100881.72
2023-02-01T09:55:15.435Z,100973.31
2023-02-01T09:58:38.107Z,100974.06
2023-02-01T10:01:44.607Z,100976.50
2023-02-01T10:04:51.473Z,100978.72
2023-02-01T10:08:14.078Z,100938.56
2023-02-01T10:11:32.551Z,100933.53
2023-02-01T10:14:44.521Z,100987.00
2023-02-01T10:18:26.883Z,100984.50
2023-02-01T10:22:04.517Z,100981.91
2023-02-01T10:25:38.963Z,100989.75
2023-02-01T10:28:47.798Z,100977.66
2023-02-01T10:31:55.043Z,100904.41
2023-02-01T10:35:24.989Z,100992.63
2023-02-01T10:38:34.250Z,100916.75
2023-02-01T10:41:42.589Z,100998.38
2023-02-01T10:44:50.080Z,100970.41
2023-02-01T10:47:59.210Z,100989.66
2023-02-01T10:51:24.799Z,100995.09
2023-02-01T10:54:40.081Z,101000.22
2023-02-01T10:57:58.875Z,100983.16
2023-02-01T11:01:10.681Z,100979.75
2023-02-01T11:04:20.807Z,100987.28
2023-02-01T11:07:28.494Z,101002.00
2023-02-01T11:10:43.992Z,100995.66
2023-02-01T11:14:13.155Z,101003.19
2023-02-01T11:17:25.227Z,101006.31
2023-02-01T11:20:33.757Z,101014.38
2023-02-01T11:23:47.615Z,100990.41
2023-02-01T11:26:58.519Z,101016.00
2023-02-01T11:30:06.522Z,101010.19
2023-02-01T11:33:20.704Z,101036.28
2023-02-01T11:36:34.209Z,101048.50
2023-02-01T11:39:41.181Z,101033.00
2023-02-01T11:43:00.375Z,101012.84
2023-02-01T11:46:24.331Z,101044.59
2023-02-01T11:49:32.668Z,101045.66
2023-02-01T11:52:56.486Z,101051.19
2023-02-01T11:56:22.199Z,101048.31
2023-02-01T11:59:48.737Z,101053.34
2023-02-01T12:03:08.099Z,101049.00
2023-02-01T12:06:23.431Z,101052.06
2023-02-01T12:09:56.433Z,101048.63
2023-02-01T12:13:27.973Z,101052.81
2023-02-01T12:17:07.447Z,101043.06
2023-02-01T12:20:25.306Z,101073.88
2023-02-01T12:24:08.565Z,101093.22
2023-02-01T12:27:48.861Z,101082.84
2023-02-01T12:30:58.570Z,101076.16
2023-02-01T12:34:05.015Z,101079.34
2023-02-01T12:37:29.513Z,101086.06
2023-02-01T12:40:47.459Z,101077.00
2023-02-01T12:44:10.542Z,101080.16
2023-02-01T12:47:24.963Z,101059.81
2023-02-01T12:51:01.111Z,101099.31
2023-02-01T12:54:39.345Z,101096.97
2023-02-01T12:58:09.272Z,100969.06
2023-02-01T13:01:24.174Z,101004.69
2023-02-01T13:05:00.799Z,101096.81
2023-02-01T13:08:16.416Z,101108.75
2023-02-01T13:11:49.724Z,101104.50
2023-02-01T13:15:19.446Z,101053.81
2023-02-01T13:18:36.411Z,101062.75
2023-02-01T13:21:48.705Z,101121.63
2023-02-01T13:25:05.586Z,101105.38
2023-02-01T13:28:28.114Z,101147.94
2023-02-01T13:31:54.031Z,101141.19
2023-02-01T13:35:23.674Z,101142.03
2023-02-01T13:38:35.215Z,101144.00
2023-02-01T13:41:53.467Z,101134.81
2023-02-01T13:45:06.349Z,101149.78
2023-02-01T13:48:25.986Z,101160.28
2023-02-01T13:51:47.756Z,101150.41
2023-02-01T13:55:14.940Z,101159.84
2023-02-01T13:58:36.321Z,101153.59
2023-02-01T14:01:42.670Z,101153.44
2023-02-01T14:04:53.383Z,101149.84
2023-02-01T14:08:09.343Z,101154.63
2023-02-01T14:11:39.875Z,101141.34
2023-02-01T14:14:45.778Z,101159.81
2023-02-01T14:17:52.186Z,101145.63
2023-02-01T14:21:23.507Z,101088.94
2023-02-01T14:24:35.845Z,101140.44
2023-02-01T14:27:41.764Z,101074.22
2023-02-01T14:30:48.076Z,101099.09
2023-02-01T14:34:00.904Z,101131.31
2023-02-01T14:37:10.902Z,101126.06
2023-02-01T14:40:21.623Z,101132.34
2023-02-01T14:44:10.392Z,101139.78
2023-02-01T14:47:23.201Z,101140.84
2023-02-01T14:50:37.647Z,101088.72
2023-02-01T14:53:45.393Z,101126.88
2023-02-01T14:56:53.196Z,101136.75
2023-02-01T15:00:22.492Z,101154.66
2023-02-01T15:03:28.106Z,101149.34
2023-02-01T15:06:49.565Z,101100.09
2023-02-01T15:10:01.012Z,101126.72
2023-02-01T15:13:07.789Z,101103.31
2023-02-01T15:16:17.556Z,101104.69
2023-02-01T15:19:26.184Z,101143.19
2023-02-01T15:26:27.497Z,101162.78
2023-02-01T15:29:35.052Z,101158.44
2023-02-01T15:32:42.432Z,101150.41
2023-02-01T15:35:53.317Z,101153.13
2023-02-01T15:39:31.305Z,101151.31
2023-02-01T15:42:40.643Z,101144.88
2023-02-01T15:45:46.842Z,101150.09
2023-02-01T15:48:56.292Z,101146.03
2023-02-01T15:52:06.350Z,101133.34
2023-02-01T15:55:40.340Z,101147.47
2023-02-01T15:58:51.533Z,101118.09
2023-02-01T16:01:57.751Z,101158.97
2023-02-01T16:05:05.420Z,101166.16
2023-02-01T16:08:28.977Z,101165.28
2023-02-01T16:11:55.351Z,101183.31
2023-02-01T16:15:01.617Z,101159.03
2023-02-01T16:18:12.529Z,101187.78
2023-02-01T16:21:18.662Z,101184.97
2023-02-01T16:24:34.436Z,100915.06
2023-02-01T16:27:40.196Z,101194.78
2023-02-01T16:30:46.471Z,101201.78
2023-02-01T16:33:53.959Z,101202.41
2023-02-01T16:37:02.357Z,101157.66
2023-02-01T16:40:15.839Z,101190.78
2023-02-01T16:43:24.933Z,101191.66
2023-02-01T16:46:36.693Z,101176.03
2023-02-01T16:49:44.811Z,101191.78
2023-02-01T16:52:52.672Z,101193.91
2023-02-01T16:55:59.984Z,101174.19
2023-02-01T16:59:05.711Z,101180.41
2023-02-01T17:02:17.534Z,101206.25
2023-02-01T17:05:23.824Z,101204.50
2023-02-01T17:08:39.596Z,101206.88
2023-02-01T17:11:45.319Z,101193.44
2023-02-01T17:14:52.098Z,101201.53
2023-02-01T17:17:59.471Z,101185.56
2023-02-01T17:21:07.073Z,101177.97
2023-02-01T17:24:18.044Z,101178.28
2023-02-01T17:27:23.865Z,101175.03
2023-02-01T17:30:28.065Z,101199.91
2023-02-01T17:33:37.829Z,101209.84
2023-02-01T17:36:48.177Z,101175.31
2023-02-01T17:39:56.811Z,101204.16
2023-02-01T17:43:03.070Z,101107.13
2023-02-01T17:46:17.674Z,101211.59
2023-02-01T17:49:23.646Z,101203.53
2023-02-01T17:52:31.041Z,101206.31
2023-02-01T17:55:39.405Z,101166.00
2023-02-01T17:58:45.852Z,101200.66
2023-02-01T18:01:51.994Z,101198.84
2023-02-01T18:04:59.858Z,101143.25
2023-02-01T18:08:03.956Z,101220.38
2023-02-01T18:11:22.835Z,101233.03
2023-02-01T18:14:28.684Z,101198.31
2023-02-01T18:17:34.390Z,101203.88
2023-02-01T18:20:44.231Z,101215.63
2023-02-01T18:23:50.490Z,101202.56
2023-02-01T18:26:58.053Z,101222.53
2023-02-01T18:30:02.054Z,101219.69
2023-02-01T18:33:06.478Z,101229.63
2023-02-01T18:36:14.456Z,101189.38
2023-02-01T18:39:20.860Z,101216.94
2023-02-01T18:42:26.661Z,101236.88
2023-02-01T18:45:40.048Z,101234.25
2023-02-01T18:48:46.662Z,101227.94
2023-02-01T18:51:54.151Z,101131.75
2023-02-01T18:55:00.761Z,101209.88
2023-02-01T18:58:08.424Z,101207.50
2023-02-01T19:01:22.681Z,101239.06
2023-02-01T19:04:31.885Z,101241.81
2023-02-01T19:07:38.547Z,101237.81
2023-02-01T19:10:44.502Z,101247.94
2023-02-01T19:13:52.200Z,101235.13
2023-02-01T19:16:58.937Z,101216.63
2023-02-01T19:20:05.715Z,101232.41
2023-02-01T19:23:16.962Z,101221.28
2023-02-01T19:26:22.759Z,101228.97
2023-02-01T19:29:28.588Z,101226.34
2023-02-01T19:32:32.570Z,101223.13
2023-02-01T19:35:36.742Z,101232.31
2023-02-01T19:38:43.478Z,101197.69
2023-02-01T19:41:49.530Z,101238.63
2023-02-01T19:44:55.880Z,101253.03
2023-02-01T19:48:03.955Z,101252.81
2023-02-01T19:51:10.206Z,101259.66
2023-02-01T19:54:17.129Z,101252.81
2023-02-01T19:57:23.028Z,101247.06
2023-02-01T20:00:28.223Z,101259.06
2023-02-01T20:03:33.928Z,101261.09
2023-02-01T20:06:41.845Z,101262.75
2023-02-01T20:09:47.488Z,101256.22
2023-02-01T20:12:53.466Z,101235.41
2023-02-01T20:16:00.235Z,101264.72
2023-02-01T20:19:06.723Z,101262.34
2023-02-01T20:22:12.695Z,101261.63
2023-02-01T20:25:18.851Z,101272.06
2023-02-01T20:28:25.537Z,101270.63
2023-02-01T20:31:31.596Z,101256.22
2023-02-01T20:34:37.711Z,101269.19
2023-02-01T20:37:43.467Z,101274.22
2023-02-01T20:40:47.959Z,101249.53
2023-02-01T20:43:54.000Z,101265.75
2023-02-01T20:46:59.958Z,101219.59
2023-02-01T20:50:05.983Z,101272.06
2023-02-01T20:53:17.082Z,101276.34
2023-02-01T20:56:29.191Z,101268.47
2023-02-01T20:59:35.232Z,101249.59
2023-02-01T21:02:41.619Z,101257.88
2023-02-01T21:05:55.665Z,101280.63
2023-02-01T21:09:01.989Z,101271.09
2023-02-01T21:12:07.787Z,101264.84
2023-02-01T21:15:14.210Z,101258.41
2023-02-01T21:18:20.542Z,101216.72
2023-02-01T21:21:26.802Z,101262.34
2023-02-01T21:24:32.478Z,101253.00
2023-02-01T21:27:39.008Z,101249.25
2023-02-01T21:30:45.251Z,101258.94
2023-02-01T21:33:51.576Z,101279.25
2023-02-01T21:36:57.695Z,101286.28
2023-02-01T21:40:02.408Z,101291.13
2023-02-01T21:43:09.149Z,101195.63
2023-02-01T21:46:15.273Z,101275.81
2023-02-01T21:49:21.120Z,101295.97
2023-02-01T21:52:28.666Z,101300.50
2023-02-01T21:55:34.549Z,101298.94
2023-02-01T21:58:39.038Z,101272.53
2023-02-01T22:01:48.132Z,101317.34
2023-02-01T22:05:05.038Z,101306.47
2023-02-01T22:08:14.359Z,101303.66
2023-02-01T22:11:20.493Z,101312.50
2023-02-01T22:14:26.788Z,101317.28
2023-02-01T22:17:32.674Z,101312.84
2023-02-01T22:20:43.618Z,101335.78
2023-02-01T22:23:57.535Z,101336.53
2023-02-01T22:27:14.060Z,101334.13
2023-02-01T22:30:23.365Z,101337.75
2023-02-01T22:33:29.835Z,101318.59
2023-02-01T22:36:36.076Z,101314.13
2023-02-01T22:39:44.627Z,101315.63
2023-02-01T22:42:50.147Z,101340.19
2023-02-01T22:45:56.022Z,101339.31
2023-02-01T22:49:02.748Z,101321.84
2023-02-01T22:52:08.483Z,101346.06
2023-02-01T22:55:14.235Z,101324.06
2023-02-01T22:58:20.832Z,101334.81
2023-02-01T23:01:26.700Z,101345.34
2023-02-01T23:04:32.686Z,101354.41
2023-02-01T23:07:39.428Z,101339.56
2023-02-01T23:10:45.333Z,101282.34
2023-02-01T23:13:51.296Z,101358.00
2023-02-01T23:16:57.021Z,101340.88
2023-02-01T23:20:03.680Z,101366.63
2023-02-01T23:23:09.296Z,101295.97
2023-02-01T23:26:15.747Z,101339.63
2023-02-01T23:29:21.878Z,101279.09
2023-02-01T23:32:27.881Z,101303.13
2023-02-01T23:35:34.315Z,101333.09
2023-02-01T23:38:40.236Z,101339.63
2023-02-01T23:41:45.954Z,101331.84
2023-02-01T23:44:51.775Z,101351.22
2023-02-01T23:47:57.536Z,101276.09
2023-02-01T23:51:03.882Z,101356.16
2023-02-01T23:54:11.719Z,101352.28
2023-02-01T23:57:17.458Z,101350.47
